sensor_id;sensor_type;location;lat;lon;timestamp;pressure;altitude;pressure_sealevel;temperature;humidity
4836;BME280;66719;51.226;6.902;2023-04-27T00:00:59;101174.06;;;6.46;100.00
4836;BME280;66719;51.226;6.902;2023-04-27T00:03:25;101186.19;;;6.43;100.00
4836;BME280;66719;51.226;6.902;2023-04-27T00:05:52;101171.38;;;6.33;100.00
4836;BME280;66719;51.226;6.902;2023-04-27T00:08:19;101173.97;;;6.31;100.00
4836;BME280;66719;51.226;6.902;2023-04-27T00:10:46;101174.81;;;6.27;100.00
4836;BME280;66719;51.226;6.902;2023-04-27T00:13:12;101171.31;;;6.23;100.00
4836;BME280;66719;51.226;6.902;2023-04-27T00:15:38;101175.66;;;6.23;100.00
4836;BME280;66719;51.226;6.902;2023-04-27T00:18:06;101175.63;;;6.18;100.00
4836;BME280;66719;51.226;6.902;2023-04-27T00:20:32;101180.78;;;6.14;100.00
4836;BME280;66719;51.226;6.902;2023-04-27T00:22:59;101184.31;;;6.17;100.00
4836;BME280;66719;51.226;6.902;2023-04-27T00:25:25;101183.31;;;6.05;100.00
4836;BME280;66719;51.226;6.902;2023-04-27T00:27:52;101175.53;;;6.02;100.00
4836;BME280;66719;51.226;6.902;2023-04-27T00:30:18;101175.53;;;6.06;100.00
4836;BME280;66719;51.226;6.902;2023-04-27T00:32:45;101178.97;;;6.01;100.00
4836;BME280;66719;51.226;6.902;2023-04-27T00:35:11;101185.03;;;6.00;100.00
4836;BME280;66719;51.226;6.902;2023-04-27T00:37:38;101184.13;;;5.99;100.00
4836;BME280;66719;51.226;6.902;2023-04-27T00:40:05;101184.13;;;5.98;100.00
4836;BME280;66719;51.226;6.902;2023-04-27T00:42:35;101181.50;;;5.91;100.00
4836;BME280;66719;51.226;6.902;2023-04-27T00:45:01;101194.41;;;5.85;100.00
4836;BME280;66719;51.226;6.902;2023-04-27T00:47:29;101190.03;;;5.80;100.00
4836;BME280;66719;51.226;6.902;2023-04-27T00:49:56;101189.13;;;5.76;100.00
4836;BME280;66719;51.226;6.902;2023-04-27T00:52:22;101189.94;;;5.71;100.00
4836;BME280;66719;51.226;6.902;2023-04-27T00:54:50;101177.88;;;5.74;100.00
4836;BME280;66719;51.226;6.902;2023-04-27T00:57:17;101183.09;;;5.82;100.00
4836;BME280;66719;51.226;6.902;2023-04-27T00:59:44;101180.56;;;5.89;100.00
4836;BME280;66719;51.226;6.902;2023-04-27T01:02:11;101189.22;;;5.88;100.00
4836;BME280;66719;51.226;6.902;2023-04-27T01:04:39;101187.34;;;5.72;100.00
4836;BME280;66719;51.226;6.902;2023-04-27T01:07:06;101188.13;;;5.63;100.00
4836;BME280;66719;51.226;6.902;2023-04-27T01:09:33;101188.19;;;5.66;100.00
4836;BME280;66719;51.226;6.902;2023-04-27T01:11:59;101189.00;;;5.64;100.00
4836;BME280;66719;51.226;6.902;2023-04-27T01:14:26;101170.72;;;5.52;100.00
4836;BME280;66719;51.226;6.902;2023-04-27T01:16:53;101178.44;;;5.46;100.00
4836;BME280;66719;51.226;6.902;2023-04-27T01:19:19;101180.09;;;5.34;100.00
4836;BME280;66719;51.226;6.902;2023-04-27T01:21:46;101173.22;;;5.39;100.00
4836;BME280;66719;51.226;6.902;2023-04-27T01:24:12;101190.50;;;5.37;100.00
4836;BME280;66719;51.226;6.902;2023-04-27T01:26:39;101185.22;;;5.30;100.00
4836;BME280;66719;51.226;6.902;2023-04-27T01:29:05;101185.19;;;5.27;100.00
4836;BME280;66719;51.226;6.902;2023-04-27T01:31:32;101186.94;;;5.28;100.00
4836;BME280;66719;51.226;6.902;2023-04-27T01:33:58;101188.53;;;5.15;100.00
4836;BME280;66719;51.226;6.902;2023-04-27T01:36:25;101192.78;;;5.10;100.00
4836;BME280;66719;51.226;6.902;2023-04-27T01:38:53;101187.56;;;5.07;100.00
4836;BME280;66719;51.226;6.902;2023-04-27T01:41:19;101185.88;;;5.09;100.00
4836;BME280;66719;51.226;6.902;2023-04-27T01:43:45;101185.94;;;5.14;100.00
4836;BME280;66719;51.226;6.902;2023-04-27T01:46:13;101194.56;;;5.13;100.00
4836;BME280;66719;51.226;6.902;2023-04-27T01:48:41;101188.47;;;5.10;100.00
4836;BME280;66719;51.226;6.902;2023-04-27T01:51:07;101203.16;;;5.08;100.00
4836;BME280;66719;51.226;6.902;2023-04-27T01:53:51;101202.28;;;5.06;100.00
4836;BME280;66719;51.226;6.902;2023-04-27T01:56:18;101203.94;;;5.03;100.00
4836;BME280;66719;51.226;6.902;2023-04-27T01:58:44;101210.91;;;5.04;100.00
4836;BME280;66719;51.226;6.902;2023-04-27T02:01:11;101204.81;;;5.03;100.00
4836;BME280;66719;51.226;6.902;2023-04-27T02:03:55;101213.44;;;5.01;100.00
4836;BME280;66719;51.226;6.902;2023-04-27T02:06:22;101208.13;;;4.90;100.00
4836;BME280;66719;51.226;6.902;2023-04-27T02:08:48;101214.19;;;4.89;100.00
4836;BME280;66719;51.226;6.902;2023-04-27T02:11:15;101212.53;;;4.96;100.00
4836;BME280;66719;51.226;6.902;2023-04-27T02:13:41;101208.31;;;5.04;100.00
4836;BME280;66719;51.226;6.902;2023-04-27T02:16:08;101211.72;;;5.01;100.00
4836;BME280;66719;51.226;6.902;2023-04-27T02:18:52;101212.56;;;4.99;100.00
4836;BME280;66719;51.226;6.902;2023-04-27T02:21:19;101208.13;;;4.89;100.00
4836;BME280;66719;51.226;6.902;2023-04-27T02:24:04;101205.56;;;4.92;100.00
4836;BME280;66719;51.226;6.902;2023-04-27T02:26:48;101201.31;;;4.97;100.00
4836;BME280;66719;51.226;6.902;2023-04-27T03:18:22;101181.44;;;4.99;100.00
4836;BME280;66719;51.226;6.902;2023-04-27T03:20:48;101178.94;;;5.09;100.00
4836;BME280;66719;51.226;6.902;2023-04-27T03:23:15;101175.56;;;5.14;100.00
4836;BME280;66719;51.226;6.902;2023-04-27T03:25:42;101179.00;;;5.14;100.00
4836;BME280;66719;51.226;6.902;2023-04-27T03:28:08;101189.41;;;5.14;100.00
4836;BME280;66719;51.226;6.902;2023-04-27T03:30:38;101192.84;;;5.15;100.00
4836;BME280;66719;51.226;6.902;2023-04-27T03:33:04;101189.31;;;5.09;100.00
4836;BME280;66719;51.226;6.902;2023-04-27T03:35:31;101186.72;;;5.09;100.00
4836;BME280;66719;51.226;6.902;2023-04-27T03:37:57;101185.88;;;5.09;100.00
4836;BME280;66719;51.226;6.902;2023-04-27T03:40:24;101188.38;;;5.03;100.00
4836;BME280;66719;51.226;6.902;2023-04-27T03:42:50;101201.44;;;5.09;100.00
4836;BME280;66719;51.226;6.902;2023-04-27T03:45:17;101186.72;;;5.08;100.00
4836;BME280;66719;51.226;6.902;2023-04-27T03:47:44;101192.75;;;5.04;100.00
4836;BME280;66719;51.226;6.902;2023-04-27T03:50:11;101194.50;;;5.06;100.00
4836;BME280;66719;51.226;6.902;2023-04-27T03:52:37;101181.47;;;5.03;100.00
4836;BME280;66719;51.226;6.902;2023-04-27T03:55:05;101190.94;;;4.98;100.00
4836;BME280;66719;51.226;6.902;2023-04-27T03:57:32;101190.97;;;5.03;100.00
4836;BME280;66719;51.226;6.902;2023-04-27T03:59:58;101198.66;;;4.94;100.00
4836;BME280;66719;51.226;6.902;2023-04-27T04:02:25;101192.56;;;4.90;100.00
4836;BME280;66719;51.226;6.902;2023-04-27T04:04:52;101201.22;;;4.89;100.00
4836;BME280;66719;51.226;6.902;2023-04-27T04:07:18;101201.13;;;4.83;100.00
4836;BME280;66719;51.226;6.902;2023-04-27T04:10:04;101207.25;;;4.87;100.00
4836;BME280;66719;51.226;6.902;2023-04-27T04:12:36;101208.94;;;4.86;100.00
4836;BME280;66719;51.226;6.902;2023-04-27T04:15:03;101209.84;;;4.88;100.00
4836;BME280;66719;51.226;6.902;2023-04-27T04:17:30;101215.03;;;4.88;100.00
4836;BME280;66719;51.226;6.902;2023-04-27T04:19:59;101211.50;;;4.85;100.00
4836;BME280;66719;51.226;6.902;2023-04-27T04:22:26;101215.81;;;4.84;100.00
4836;BME280;66719;51.226;6.902;2023-04-27T04:24:53;101216.72;;;4.86;100.00
4836;BME280;66719;51.226;6.902;2023-04-27T04:27:19;101215.78;;;4.79;100.00
4836;BME280;66719;51.226;6.902;2023-04-27T04:29:46;101215.81;;;4.82;100.00
4836;BME280;66719;51.226;6.902;2023-04-27T04:32:13;101220.16;;;4.83;100.00
4836;BME280;66719;51.226;6.902;2023-04-27T04:34:46;101221.09;;;4.90;100.00
4836;BME280;66719;51.226;6.902;2023-04-27T04:37:14;101217.66;;;4.91;100.00
4836;BME280;66719;51.226;6.902;2023-04-27T04:39:41;101215.94;;;4.92;100.00
4836;BME280;66719;51.226;6.902;2023-04-27T04:42:08;101221.97;;;4.92;100.00
4836;BME280;66719;51.226;6.902;2023-04-27T04:44:34;101227.19;;;4.94;100.00
4836;BME280;66719;51.226;6.902;2023-04-27T04:47:01;101222.88;;;4.94;100.00
4836;BME280;66719;51.226;6.902;2023-04-27T04:49:27;101232.34;;;4.91;100.00
4836;BME280;66719;51.226;6.902;2023-04-27T04:51:56;101220.25;;;4.93;100.00
4836;BME280;66719;51.226;6.902;2023-04-27T04:54:23;101223.72;;;4.95;100.00
4836;BME280;66719;51.226;6.902;2023-04-27T04:56:49;101222.97;;;5.02;100.00
4836;BME280;66719;51.226;6.902;2023-04-27T04:59:16;101222.06;;;4.98;100.00
4836;BME280;66719;51.226;6.902;2023-04-27T05:01:42;101228.13;;;5.00;100.00
4836;BME280;66719;51.226;6.902;2023-04-27T05:04:09;101229.91;;;5.03;100.00
4836;BME280;66719;51.226;6.902;2023-04-27T05:06:36;101228.22;;;5.05;100.00
4836;BME280;66719;51.226;6.902;2023-04-27T05:09:02;101225.63;;;5.05;100.00
4836;BME280;66719;51.226;6.902;2023-04-27T05:11:31;101233.41;;;5.05;100.00
4836;BME280;66719;51.226;6.902;2023-04-27T05:13:58;101228.25;;;5.08;100.00
4836;BME280;66719;51.226;6.902;2023-04-27T05:16:24;101230.00;;;5.12;100.00
4836;BME280;66719;51.226;6.902;2023-04-27T05:18:51;101228.34;;;5.16;100.00
4836;BME280;66719;51.226;6.902;2023-04-27T05:21:19;101231.00;;;5.22;100.00
4836;BME280;66719;51.226;6.902;2023-04-27T05:23:47;101247.44;;;5.22;100.00
4836;BME280;66719;51.226;6.902;2023-04-27T05:26:15;101252.66;;;5.24;100.00
4836;BME280;66719;51.226;6.902;2023-04-27T05:28:42;101248.34;;;5.26;100.00
4836;BME280;66719;51.226;6.902;2023-04-27T05:31:08;101243.16;;;5.27;100.00
4836;BME280;66719;51.226;6.902;2023-04-27T05:33:35;101251.88;;;5.31;100.00
4836;BME280;66719;51.226;6.902;2023-04-27T05:36:01;101249.28;;;5.32;100.00
4836;BME280;66719;51.226;6.902;2023-04-27T05:38:28;101251.03;;;5.35;100.00
4836;BME280;66719;51.226;6.902;2023-04-27T05:40:55;101251.97;;;5.40;100.00
4836;BME280;66719;51.226;6.902;2023-04-27T05:43:22;101248.53;;;5.43;100.00
4836;BME280;66719;51.226;6.902;2023-04-27T05:45:49;101251.16;;;5.46;100.00
4836;BME280;66719;51.226;6.902;2023-04-27T05:48:16;101251.22;;;5.50;100.00
4836;BME280;66719;51.226;6.902;2023-04-27T05:50:43;101251.22;;;5.52;100.00
4836;BME280;66719;51.226;6.902;2023-04-27T05:53:09;101258.22;;;5.57;100.00
4836;BME280;66719;51.226;6.902;2023-04-27T05:55:36;101253.06;;;5.62;100.00
4836;BME280;66719;51.226;6.902;2023-04-27T05:58:05;101257.44;;;5.66;100.00
4836;BME280;66719;51.226;6.902;2023-04-27T06:00:35;101267.03;;;5.73;100.00
4836;BME280;66719;51.226;6.902;2023-04-27T06:03:02;101263.63;;;5.77;100.00
4836;BME280;66719;51.226;6.902;2023-04-27T06:05:28;101264.50;;;5.81;100.00
4836;BME280;66719;51.226;6.902;2023-04-27T06:07:55;101259.38;;;5.85;100.00
4836;BME280;66719;51.226;6.902;2023-04-27T06:10:21;101269.00;;;5.91;100.00
4836;BME280;66719;51.226;6.902;2023-04-27T06:12:48;101272.50;;;5.98;100.00
4836;BME280;66719;51.226;6.902;2023-04-27T06:15:14;101263.88;;;6.02;100.00
4836;BME280;66719;51.226;6.902;2023-04-27T06:17:42;101266.50;;;6.05;100.00
4836;BME280;66719;51.226;6.902;2023-04-27T06:20:09;101263.09;;;6.10;100.00
4836;BME280;66719;51.226;6.902;2023-04-27T06:22:37;101270.91;;;6.13;100.00
4836;BME280;66719;51.226;6.902;2023-04-27T06:25:05;101256.22;;;6.20;100.00
4836;BME280;66719;51.226;6.902;2023-04-27T06:27:33;101270.97;;;6.24;100.00
4836;BME280;66719;51.226;6.902;2023-04-27T06:29:59;101264.97;;;6.28;100.00
4836;BME280;66719;51.226;6.902;2023-04-27T06:32:26;101266.72;;;6.31;100.00
4836;BME280;66719;51.226;6.902;2023-04-27T06:34:53;101265.91;;;6.35;100.00
4836;BME280;66719;51.226;6.902;2023-04-27T06:37:19;101253.75;;;6.37;100.00
4836;BME280;66719;51.226;6.902;2023-04-27T06:39:46;101255.50;;;6.42;100.00
4836;BME280;66719;51.226;6.902;2023-04-27T06:42:13;101258.16;;;6.48;100.00
4836;BME280;66719;51.226;6.902;2023-04-27T06:44:40;101253.84;;;6.49;100.00
4836;BME280;66719;51.226;6.902;2023-04-27T06:47:06;101259.91;;;6.51;100.00
4836;BME280;66719;51.226;6.902;2023-04-27T06:49:33;101266.88;;;6.55;100.00
4836;BME280;66719;51.226;6.902;2023-04-27T06:52:01;101267.75;;;6.56;100.00
4836;BME280;66719;51.226;6.902;2023-04-27T06:54:28;101263.47;;;6.64;100.00
4836;BME280;66719;51.226;6.902;2023-04-27T06:56:54;101263.53;;;6.70;100.00
4836;BME280;66719;51.226;6.902;2023-04-27T06:59:21;101258.31;;;6.73;100.00
4836;BME280;66719;51.226;6.902;2023-04-27T07:01:48;101256.59;;;6.75;100.00
4836;BME280;66719;51.226;6.902;2023-04-27T07:04:14;101259.25;;;6.81;100.00
4836;BME280;66719;51.226;6.902;2023-04-27T07:06:41;101267.06;;;6.86;100.00
4836;BME280;66719;51.226;6.902;2023-04-27T07:09:07;101261.03;;;6.88;100.00
4836;BME280;66719;51.226;6.902;2023-04-27T07:11:52;101256.69;;;6.90;100.00
4836;BME280;66719;51.226;6.902;2023-04-27T07:14:18;101263.69;;;6.97;100.00
4836;BME280;66719;51.226;6.902;2023-04-27T07:16:45;101260.22;;;7.01;100.00
4836;BME280;66719;51.226;6.902;2023-04-27T07:19:12;101265.44;;;7.07;100.00
4836;BME280;66719;51.226;6.902;2023-04-27T07:21:39;101267.22;;;7.15;100.00
4836;BME280;66719;51.226;6.902;2023-04-27T07:24:06;101263.75;;;7.20;100.00
4836;BME280;66719;51.226;6.902;2023-04-27T07:26:33;101257.72;;;7.23;100.00
4836;BME280;66719;51.226;6.902;2023-04-27T07:29:00;101260.31;;;7.26;100.00
4836;BME280;66719;51.226;6.902;2023-04-27T07:31:33;101253.38;;;7.29;100.00
4836;BME280;66719;51.226;6.902;2023-04-27T07:34:00;101248.19;;;7.35;100.00
4836;BME280;66719;51.226;6.902;2023-04-27T07:36:26;101253.44;;;7.40;100.00
4836;BME280;66719;51.226;6.902;2023-04-27T07:38:53;101259.53;;;7.48;100.00
4836;BME280;66719;51.226;6.902;2023-04-27T07:41:21;101260.41;;;7.52;100.00
4836;BME280;66719;51.226;6.902;2023-04-27T07:43:48;101268.25;;;7.56;100.00
4836;BME280;66719;51.226;6.902;2023-04-27T07:46:17;101264.75;;;7.60;100.00
4836;BME280;66719;51.226;6.902;2023-04-27T07:48:44;101269.09;;;7.61;100.00
4836;BME280;66719;51.226;6.902;2023-04-27T07:51:10;101269.13;;;7.66;100.00
4836;BME280;66719;51.226;6.902;2023-04-27T07:53:41;101269.13;;;7.68;100.00
4836;BME280;66719;51.226;6.902;2023-04-27T07:56:07;101269.13;;;7.71;100.00
4836;BME280;66719;51.226;6.902;2023-04-27T07:58:35;101262.19;;;7.65;100.00
4836;BME280;66719;51.226;6.902;2023-04-27T08:01:03;101271.72;;;7.71;100.00
4836;BME280;66719;51.226;6.902;2023-04-27T08:03:29;101269.13;;;7.66;99.90
4836;BME280;66719;51.226;6.902;2023-04-27T08:05:56;101267.38;;;7.73;100.00
4836;BME280;66719;51.226;6.902;2023-04-27T08:08:23;101267.41;;;7.79;100.00
4836;BME280;66719;51.226;6.902;2023-04-27T08:10:50;101264.81;;;7.85;98.85
4836;BME280;66719;51.226;6.902;2023-04-27T08:13:16;101262.22;;;7.91;98.38
4836;BME280;66719;51.226;6.902;2023-04-27T08:15:43;101256.13;;;7.92;99.83
4836;BME280;66719;51.226;6.902;2023-04-27T08:18:09;101256.13;;;7.98;99.38
4836;BME280;66719;51.226;6.902;2023-04-27T08:20:36;101249.19;;;7.97;95.00
4836;BME280;66719;51.226;6.902;2023-04-27T08:23:02;101252.66;;;7.96;92.23
4836;BME280;66719;51.226;6.902;2023-04-27T08:25:29;101245.72;;;8.03;92.12
4836;BME280;66719;51.226;6.902;2023-04-27T08:27:55;101251.78;;;8.14;91.74
4836;BME280;66719;51.226;6.902;2023-04-27T08:30:22;101242.25;;;8.17;91.71
4836;BME280;66719;51.226;6.902;2023-04-27T08:32:48;101237.88;;;8.30;92.76
4836;BME280;66719;51.226;6.902;2023-04-27T08:35:15;101242.22;;;8.30;95.07
4836;BME280;66719;51.226;6.902;2023-04-27T08:37:41;101234.44;;;8.37;91.85
4836;BME280;66719;51.226;6.902;2023-04-27T08:40:09;101226.59;;;8.34;90.35
4836;BME280;66719;51.226;6.902;2023-04-27T08:42:36;101231.81;;;8.36;89.97
4836;BME280;66719;51.226;6.902;2023-04-27T08:45:05;101233.53;;;8.40;87.42
4836;BME280;66719;51.226;6.902;2023-04-27T08:47:33;101236.13;;;8.34;85.49
4836;BME280;66719;51.226;6.902;2023-04-27T08:50:10;101238.75;;;8.41;85.84
4836;BME280;66719;51.226;6.902;2023-04-27T08:52:37;101230.06;;;8.48;86.17
4836;BME280;66719;51.226;6.902;2023-04-27T08:55:03;101235.25;;;8.61;84.55
4836;BME280;66719;51.226;6.902;2023-04-27T08:57:30;101233.50;;;8.67;83.56
4836;BME280;66719;51.226;6.902;2023-04-27T08:59:57;101237.84;;;8.73;84.26
4836;BME280;66719;51.226;6.902;2023-04-27T09:02:25;101242.16;;;8.82;81.73
4836;BME280;66719;51.226;6.902;2023-04-27T09:04:54;101239.56;;;8.86;82.30
4836;BME280;66719;51.226;6.902;2023-04-27T09:07:22;101229.06;;;8.92;81.29
4836;BME280;66719;51.226;6.902;2023-04-27T09:09:49;101223.84;;;8.92;81.06
4836;BME280;66719;51.226;6.902;2023-04-27T09:12:17;101229.03;;;8.98;80.82
4836;BME280;66719;51.226;6.902;2023-04-27T09:14:59;101224.69;;;9.05;81.92
4836;BME280;66719;51.226;6.902;2023-04-27T09:17:26;101224.63;;;9.14;81.79
4836;BME280;66719;51.226;6.902;2023-04-27T09:20:07;101231.63;;;9.12;80.91
4836;BME280;66719;51.226;6.902;2023-04-27T09:22:45;101214.19;;;9.14;81.10
4836;BME280;66719;51.226;6.902;2023-04-27T09:25:23;101218.56;;;9.07;80.22
4836;BME280;66719;51.226;6.902;2023-04-27T09:27:49;101228.09;;;9.12;81.04
4836;BME280;66719;51.226;6.902;2023-04-27T09:30:16;101223.75;;;9.15;80.53
4836;BME280;66719;51.226;6.902;2023-04-27T09:32:57;101222.00;;;9.22;80.99
4836;BME280;66719;51.226;6.902;2023-04-27T09:35:35;101208.00;;;9.27;80.80
4836;BME280;66719;51.226;6.902;2023-04-27T09:38:01;101212.34;;;9.33;81.37
4836;BME280;66719;51.226;6.902;2023-04-27T09:40:28;101205.31;;;9.38;81.61
4836;BME280;66719;51.226;6.902;2023-04-27T09:42:58;101213.13;;;9.49;81.56
4836;BME280;66719;51.226;6.902;2023-04-27T09:45:27;101206.09;;;9.58;79.62
4836;BME280;66719;51.226;6.902;2023-04-27T09:47:53;101210.41;;;9.61;78.17
4836;BME280;66719;51.226;6.902;2023-04-27T09:50:20;101218.25;;;9.62;77.40
4836;BME280;66719;51.226;6.902;2023-04-27T09:52:49;101212.25;;;9.48;76.70
4836;BME280;66719;51.226;6.902;2023-04-27T09:55:24;101204.34;;;9.54;76.09
4836;BME280;66719;51.226;6.902;2023-04-27T09:58:03;101214.69;;;9.73;77.01
4836;BME280;66719;51.226;6.902;2023-04-27T10:00:47;101209.28;;;9.97;77.20
4836;BME280;66719;51.226;6.902;2023-04-27T10:03:46;101189.09;;;10.13;75.26
4836;BME280;66719;51.226;6.902;2023-04-27T10:06:44;101184.63;;;10.29;75.20
4836;BME280;66719;51.226;6.902;2023-04-27T10:09:15;101191.44;;;10.45;75.72
4836;BME280;66719;51.226;6.902;2023-04-27T10:11:42;101189.63;;;10.50;73.92
4836;BME280;66719;51.226;6.902;2023-04-27T10:14:16;101184.41;;;10.48;72.75
4836;BME280;66719;51.226;6.902;2023-04-27T10:16:44;101180.00;;;10.52;73.19
4836;BME280;66719;51.226;6.902;2023-04-27T10:19:12;101173.03;;;10.50;72.86
4836;BME280;66719;51.226;6.902;2023-04-27T10:22:00;101167.00;;;10.44;71.01
4836;BME280;66719;51.226;6.902;2023-04-27T10:24:35;101168.75;;;10.44;71.57
4836;BME280;66719;51.226;6.902;2023-04-27T10:27:04;101174.78;;;10.52;71.98
4836;BME280;66719;51.226;6.902;2023-04-27T10:29:41;101166.06;;;10.52;71.60
4836;BME280;66719;51.226;6.902;2023-04-27T10:32:10;101156.34;;;10.60;71.91
4836;BME280;66719;51.226;6.902;2023-04-27T10:34:38;101157.22;;;10.62;72.32
4836;BME280;66719;51.226;6.902;2023-04-27T10:37:09;101156.34;;;10.60;71.39
4836;BME280;66719;51.226;6.902;2023-04-27T10:39:39;101162.34;;;10.68;71.72
4836;BME280;66719;51.226;6.902;2023-04-27T10:42:25;101158.78;;;10.75;70.95
4836;BME280;66719;51.226;6.902;2023-04-27T10:44:55;101159.63;;;10.79;70.92
4836;BME280;66719;51.226;6.902;2023-04-27T10:47:22;101152.63;;;10.79;71.30
4836;BME280;66719;51.226;6.902;2023-04-27T10:49:53;101147.25;;;10.90;71.82
4836;BME280;66719;51.226;6.902;2023-04-27T10:52:22;101130.59;;;10.95;71.68
4836;BME280;66719;51.226;6.902;2023-04-27T10:54:48;101145.34;;;11.04;72.24
4836;BME280;66719;51.226;6.902;2023-04-27T10:57:15;101146.16;;;11.06;71.28
4836;BME280;66719;51.226;6.902;2023-04-27T10:59:50;101145.47;;;10.95;69.84
4836;BME280;66719;51.226;6.902;2023-04-27T11:02:27;101152.41;;;10.97;69.79
4836;BME280;66719;51.226;6.902;2023-04-27T11:04:54;101147.81;;;11.12;69.63
4836;BME280;66719;51.226;6.902;2023-04-27T11:07:26;101152.06;;;11.20;69.41
4836;BME280;66719;51.226;6.902;2023-04-27T11:09:53;101149.47;;;11.19;69.31
4836;BME280;66719;51.226;6.902;2023-04-27T11:12:21;101150.22;;;11.27;69.18
4836;BME280;66719;51.226;6.902;2023-04-27T11:14:47;101152.81;;;11.28;67.62
4836;BME280;66719;51.226;6.902;2023-04-27T11:17:14;101149.34;;;11.28;68.49
4836;BME280;66719;51.226;6.902;2023-04-27T11:19:47;101149.47;;;11.19;66.35
4836;BME280;66719;51.226;6.902;2023-04-27T11:22:14;101146.13;;;11.09;66.22
4836;BME280;66719;51.226;6.902;2023-04-27T11:24:48;101147.91;;;11.07;66.22
4836;BME280;66719;51.226;6.902;2023-04-27T11:27:15;101137.41;;;11.07;65.79
4836;BME280;66719;51.226;6.902;2023-04-27T11:29:43;101136.50;;;11.10;65.30
4836;BME280;66719;51.226;6.902;2023-04-27T11:32:30;101131.22;;;11.11;62.95
4836;BME280;66719;51.226;6.902;2023-04-27T11:34:57;101134.75;;;11.10;65.68
4836;BME280;66719;51.226;6.902;2023-04-27T11:37:26;101133.75;;;11.19;65.01
4836;BME280;66719;51.226;6.902;2023-04-27T11:39:53;101127.75;;;11.11;65.35
4836;BME280;66719;51.226;6.902;2023-04-27T11:42:25;101126.63;;;11.27;65.50
4836;BME280;66719;51.226;6.902;2023-04-27T11:44:55;101132.81;;;11.24;63.78
4836;BME280;66719;51.226;6.902;2023-04-27T11:47:23;101127.59;;;11.20;61.59
4836;BME280;66719;51.226;6.902;2023-04-27T11:49:51;101117.13;;;11.21;62.48
4836;BME280;66719;51.226;6.902;2023-04-27T11:52:21;101115.25;;;11.28;61.82
4836;BME280;66719;51.226;6.902;2023-04-27T11:54:49;101098.59;;;11.33;63.04
4836;BME280;66719;51.226;6.902;2023-04-27T11:57:16;101099.31;;;11.42;65.33
4836;BME280;66719;51.226;6.902;2023-04-27T11:59:42;101099.09;;;11.57;63.27
4836;BME280;66719;51.226;6.902;2023-04-27T12:02:09;101101.66;;;11.60;61.39
4836;BME280;66719;51.226;6.902;2023-04-27T12:04:35;101100.00;;;11.53;60.60
4836;BME280;66719;51.226;6.902;2023-04-27T12:07:02;101094.47;;;11.70;64.34
4836;BME280;66719;51.226;6.902;2023-04-27T12:09:29;101093.63;;;12.19;64.61
4836;BME280;66719;51.226;6.902;2023-04-27T12:11:56;101093.31;;;12.35;63.76
4836;BME280;66719;51.226;6.902;2023-04-27T12:14:23;101089.13;;;12.68;64.54
4836;BME280;66719;51.226;6.902;2023-04-27T12:16:50;101082.94;;;13.10;61.90
4836;BME280;66719;51.226;6.902;2023-04-27T12:19:17;101080.53;;;13.38;63.46
4836;BME280;66719;51.226;6.902;2023-04-27T12:21:43;101075.88;;;13.84;64.04
4836;BME280;66719;51.226;6.902;2023-04-27T12:24:10;101078.75;;;14.08;62.04
4836;BME280;66719;51.226;6.902;2023-04-27T12:26:37;101080.00;;;14.26;60.25
4836;BME280;66719;51.226;6.902;2023-04-27T12:29:05;101080.41;;;14.43;58.37
4836;BME280;66719;51.226;6.902;2023-04-27T12:31:32;101074.34;;;14.70;57.93
4836;BME280;66719;51.226;6.902;2023-04-27T12:33:59;101065.16;;;14.84;56.25
4836;BME280;66719;51.226;6.902;2023-04-27T12:36:26;101074.81;;;15.13;55.41
4836;BME280;66719;51.226;6.902;2023-04-27T12:38:57;101064.47;;;15.33;56.26
4836;BME280;66719;51.226;6.902;2023-04-27T12:41:23;101062.50;;;15.40;54.89
4836;BME280;66719;51.226;6.902;2023-04-27T12:43:50;101071.34;;;15.11;53.48
4836;BME280;66719;51.226;6.902;2023-04-27T12:46:17;101061.97;;;15.28;54.88
4836;BME280;66719;51.226;6.902;2023-04-27T12:48:43;101058.38;;;15.31;53.34
4836;BME280;66719;51.226;6.902;2023-04-27T12:51:10;101059.97;;;15.09;54.21
4836;BME280;66719;51.226;6.902;2023-04-27T12:53:37;101068.84;;;14.49;51.65
4836;BME280;66719;51.226;6.902;2023-04-27T12:56:03;101063.03;;;14.36;52.70
4836;BME280;66719;51.226;6.902;2023-04-27T12:58:30;101059.34;;;14.41;52.59
4836;BME280;66719;51.226;6.902;2023-04-27T13:00:57;101061.50;;;14.60;51.31
4836;BME280;66719;51.226;6.902;2023-04-27T13:03:23;101051.97;;;15.12;55.46
4836;BME280;66719;51.226;6.902;2023-04-27T13:05:50;101054.78;;;15.34;52.50
4836;BME280;66719;51.226;6.902;2023-04-27T13:08:17;101059.06;;;15.38;51.86
4836;BME280;66719;51.226;6.902;2023-04-27T13:10:44;101060.31;;;15.52;52.32
4836;BME280;66719;51.226;6.902;2023-04-27T13:13:10;101058.28;;;15.34;54.26
4836;BME280;66719;51.226;6.902;2023-04-27T13:15:37;101055.25;;;15.18;52.03
4836;BME280;66719;51.226;6.902;2023-04-27T13:18:04;101053.88;;;15.61;54.93
4836;BME280;66719;51.226;6.902;2023-04-27T13:20:31;101060.44;;;16.24;55.02
4836;BME280;66719;51.226;6.902;2023-04-27T13:22:58;101056.84;;;16.97;54.78
4836;BME280;66719;51.226;6.902;2023-04-27T13:25:25;101053.63;;;17.11;49.17
4836;BME280;66719;51.226;6.902;2023-04-27T13:27:51;101048.47;;;17.08;49.69
4836;BME280;66719;51.226;6.902;2023-04-27T13:30:19;101049.19;;;16.89;49.61
4836;BME280;66719;51.226;6.902;2023-04-27T13:32:45;101041.44;;;16.38;50.19
4836;BME280;66719;51.226;6.902;2023-04-27T13:35:12;101036.13;;;15.91;48.69
4836;BME280;66719;51.226;6.902;2023-04-27T13:37:39;101042.47;;;15.59;50.45
4836;BME280;66719;51.226;6.902;2023-04-27T13:40:09;101041.94;;;15.76;50.39
4836;BME280;66719;51.226;6.902;2023-04-27T13:42:37;101043.34;;;15.86;48.43
4836;BME280;66719;51.226;6.902;2023-04-27T13:45:04;101042.84;;;15.75;49.29
4836;BME280;66719;51.226;6.902;2023-04-27T13:47:31;101034.41;;;15.90;49.56
4836;BME280;66719;51.226;6.902;2023-04-27T13:50:06;101045.31;;;15.79;48.64
4836;BME280;66719;51.226;6.902;2023-04-27T13:52:34;101044.13;;;15.88;50.36
4836;BME280;66719;51.226;6.902;2023-04-27T13:55:05;101039.69;;;15.90;47.14
4836;BME280;66719;51.226;6.902;2023-04-27T13:57:33;101033.91;;;15.79;47.73